createdAt,value
2023-02-19T00:00:26.803Z,5.30
2023-02-19T00:03:13.823Z,5.40
2023-02-19T00:05:53.432Z,5.40
2023-02-19T00:08:51.781Z,5.40
2023-02-19T00:11:34.230Z,5.40
2023-02-19T00:14:16.689Z,5.30
2023-02-19T00:17:05.822Z,5.40
2023-02-19T00:19:51.097Z,5.90
2023-02-19T01:25:46.027Z,5.60
2023-02-19T01:46:29.361Z,5.60
2023-02-19T01:49:31.565Z,5.60
2023-02-19T01:52:42.000Z,5.60
2023-02-19T01:55:54.003Z,5.60
2023-02-19T02:05:10.587Z,5.70
2023-02-19T02:34:23.000Z,5.60
2023-02-19T02:42:40.313Z,5.60
2023-02-19T02:56:14.535Z,5.60
2023-02-19T03:19:23.986Z,6.40
2023-02-19T03:30:45.502Z,5.80
2023-02-19T03:49:20.973Z,5.70
2023-02-19T03:56:31.060Z,5.70
2023-02-19T04:20:20.258Z,5.70
2023-02-19T04:23:51.978Z,5.80
2023-02-19T04:29:51.703Z,5.80
2023-02-19T04:32:44.805Z,5.80
2023-02-19T04:39:46.717Z,5.70
2023-02-19T04:43:31.844Z,5.80
2023-02-19T04:47:11.942Z,5.80
2023-02-19T04:54:17.019Z,5.80
2023-02-19T04:57:20.431Z,5.90
2023-02-19T05:00:42.562Z,5.90
2023-02-19T05:03:30.319Z,5.80
2023-02-19T05:05:58.769Z,5.90
2023-02-19T05:08:28.736Z,5.80
2023-02-19T05:11:00.089Z,5.80
2023-02-19T05:13:30.306Z,5.80
2023-02-19T05:16:06.772Z,5.70
2023-02-19T05:18:40.080Z,5.80
2023-02-19T05:21:21.264Z,5.80
2023-02-19T05:23:49.624Z,5.80
2023-02-19T05:26:21.333Z,5.80
2023-02-19T05:29:04.975Z,5.90
2023-02-19T05:31:37.056Z,5.80
2023-02-19T05:34:05.517Z,5.80
2023-02-19T05:37:25.622Z,5.80
2023-02-19T05:40:32.701Z,6.30
2023-02-19T05:43:25.049Z,5.80
2023-02-19T05:46:12.168Z,5.80
2023-02-19T05:48:49.688Z,5.80
2023-02-19T05:51:39.277Z,5.80
2023-02-19T05:54:23.822Z,5.80
2023-02-19T05:57:33.114Z,5.80
2023-02-19T06:00:30.726Z,5.80
2023-02-19T06:03:06.093Z,5.80
2023-02-19T06:05:53.247Z,5.80
2023-02-19T06:08:36.396Z,5.70
2023-02-19T06:14:19.683Z,5.80
2023-02-19T06:17:04.575Z,5.90
2023-02-19T06:19:59.265Z,5.80
2023-02-19T06:22:35.393Z,5.70
2023-02-19T06:25:29.354Z,5.60
2023-02-19T06:28:07.214Z,5.60
2023-02-19T06:30:51.692Z,5.50
2023-02-19T06:33:30.862Z,5.50
2023-02-19T06:36:11.130Z,5.40
2023-02-19T06:38:44.535Z,5.50
2023-02-19T06:41:40.202Z,5.40
2023-02-19T06:44:44.639Z,5.40
2023-02-19T06:47:25.434Z,5.40
2023-02-19T06:50:02.520Z,5.30
2023-02-19T06:56:07.326Z,5.30
2023-02-19T06:58:43.891Z,5.30
2023-02-19T07:01:26.743Z,5.40
2023-02-19T07:04:10.902Z,5.30
2023-02-19T07:06:40.606Z,5.30
2023-02-19T07:09:44.688Z,5.30
2023-02-19T07:12:18.905Z,5.30
2023-02-19T07:15:05.233Z,5.30
2023-02-19T07:18:04.026Z,5.30
2023-02-19T07:20:48.078Z,5.20
2023-02-19T07:23:21.279Z,5.20
2023-02-19T07:26:10.112Z,5.30
2023-02-19T07:28:43.606Z,5.20
2023-02-19T07:31:19.670Z,5.20
2023-02-19T07:34:00.400Z,5.30
2023-02-19T07:36:35.175Z,5.30
2023-02-19T07:39:21.112Z,5.20
2023-02-19T07:41:55.728Z,5.30
2023-02-19T07:44:29.718Z,5.30
2023-02-19T07:47:13.398Z,5.30
2023-02-19T07:49:46.658Z,5.30
2023-02-19T07:52:17.622Z,5.30
2023-02-19T07:54:48.670Z,5.30
2023-02-19T07:57:17.007Z,5.30
2023-02-19T07:59:48.254Z,5.30
2023-02-19T08:02:40.680Z,5.80
2023-02-19T08:05:10.547Z,5.30
2023-02-19T08:07:40.574Z,5.30
2023-02-19T08:10:26.973Z,5.30
2023-02-19T08:13:16.805Z,5.30
2023-02-19T08:15:57.845Z,5.30
2023-02-19T08:18:34.167Z,5.30
2023-02-19T08:21:06.120Z,5.30
2023-02-19T08:23:39.300Z,5.30
2023-02-19T08:26:08.580Z,5.30
2023-02-19T08:28:36.596Z,5.30
2023-02-19T08:31:07.582Z,5.30
2023-02-19T08:33:35.844Z,5.30
2023-02-19T08:36:05.872Z,5.20
2023-02-19T08:38:37.702Z,5.30
2023-02-19T08:41:07.390Z,5.30
2023-02-19T08:43:36.072Z,5.30
2023-02-19T08:46:04.405Z,5.20
2023-02-19T08:48:32.461Z,5.30
2023-02-19T08:51:03.816Z,5.30
2023-02-19T08:53:32.751Z,5.30
2023-02-19T08:56:06.282Z,5.30
2023-02-19T08:58:34.556Z,5.30
2023-02-19T09:01:02.579Z,5.30
2023-02-19T09:03:30.634Z,5.30
2023-02-19T09:05:58.610Z,5.30
2023-02-19T09:08:26.611Z,5.30
2023-02-19T09:11:03.467Z,5.20
2023-02-19T09:13:31.674Z,5.30
2023-02-19T09:15:59.768Z,5.30
2023-02-19T09:18:28.002Z,5.30
2023-02-19T09:20:57.634Z,5.30
2023-02-19T09:23:25.673Z,5.30
2023-02-19T09:25:58.544Z,5.30
2023-02-19T09:28:28.384Z,5.30
2023-02-19T09:30:56.738Z,5.30
2023-02-19T09:33:24.721Z,5.30
2023-02-19T09:35:52.915Z,5.30
2023-02-19T09:38:20.895Z,5.30
2023-02-19T09:40:49.682Z,5.30
2023-02-19T09:43:21.569Z,5.20
2023-02-19T09:46:01.948Z,5.30
2023-02-19T09:48:30.163Z,5.30
2023-02-19T09:51:01.658Z,5.30
2023-02-19T09:53:40.205Z,5.30
2023-02-19T09:56:08.769Z,5.30
2023-02-19T09:58:42.767Z,5.30
2023-02-19T10:01:13.666Z,5.20
2023-02-19T10:03:46.920Z,5.30
2023-02-19T10:06:20.584Z,5.30
2023-02-19T10:08:50.751Z,5.30
2023-02-19T10:11:18.972Z,5.30
2023-02-19T10:13:50.105Z,5.20
2023-02-19T10:16:23.603Z,5.30
2023-02-19T10:18:51.861Z,5.30
2023-02-19T10:21:21.791Z,5.20
2023-02-19T10:23:54.177Z,5.20
2023-02-19T10:26:23.915Z,5.30
2023-02-19T10:28:51.864Z,5.30
2023-02-19T10:31:25.876Z,5.30
2023-02-19T10:33:55.498Z,5.30
2023-02-19T10:36:30.512Z,5.20
2023-02-19T10:39:01.035Z,5.20
2023-02-19T10:41:29.829Z,5.30
2023-02-19T10:44:07.900Z,5.20
2023-02-19T10:46:43.237Z,5.20
2023-02-19T10:49:24.469Z,5.20
2023-02-19T10:51:54.244Z,5.20
2023-02-19T10:54:30.249Z,5.30
2023-02-19T10:57:25.684Z,5.20
2023-02-19T10:59:57.603Z,5.10
2023-02-19T11:02:28.280Z,5.20
2023-02-19T11:05:16.621Z,5.20
2023-02-19T11:07:47.677Z,5.20
2023-02-19T11:10:28.648Z,5.30
2023-02-19T11:12:59.256Z,5.20
2023-02-19T11:15:30.417Z,5.20
2023-02-19T11:18:04.979Z,5.20
2023-02-19T11:20:33.714Z,5.20
2023-02-19T11:23:07.334Z,5.20
2023-02-19T11:25:35.535Z,5.20
2023-02-19T11:28:08.154Z,5.20
2023-02-19T11:30:39.449Z,5.20
2023-02-19T11:33:28.152Z,5.20
2023-02-19T11:36:23.865Z,5.20
2023-02-19T11:38:51.941Z,5.20
2023-02-19T11:41:29.010Z,5.20
2023-02-19T11:44:09.584Z,5.20
2023-02-19T13:01:17.321Z,5.30
2023-02-19T13:09:07.132Z,5.20
2023-02-19T13:19:57.940Z,5.20
2023-02-19T13:22:53.110Z,5.20
2023-02-19T13:25:22.236Z,5.20
2023-02-19T13:28:10.470Z,5.20
2023-02-19T13:30:57.957Z,5.20
2023-02-19T13:33:42.198Z,5.20
2023-02-19T13:36:15.310Z,5.20
2023-02-19T13:38:47.116Z,5.20
2023-02-19T13:41:24.484Z,5.20
2023-02-19T13:44:02.021Z,5.10
2023-02-19T13:46:40.803Z,5.10
2023-02-19T13:49:42.423Z,5.10
2023-02-19T13:52:40.494Z,5.10
2023-02-19T13:55:48.574Z,5.10
2023-02-19T13:58:39.667Z,5.10
2023-02-19T14:01:09.848Z,5.20
2023-02-19T14:03:48.289Z,5.20
2023-02-19T14:06:16.590Z,5.20
2023-02-19T14:08:52.691Z,5.10
2023-02-19T14:11:59.197Z,5.20
2023-02-19T14:14:29.915Z,5.10
2023-02-19T14:17:04.613Z,5.10
2023-02-19T14:19:47.548Z,5.20
2023-02-19T14:22:55.552Z,5.10
2023-02-19T14:25:41.411Z,5.10
2023-02-19T14:28:30.131Z,5.10
2023-02-19T14:31:01.741Z,5.10
2023-02-19T14:33:32.722Z,5.10
2023-02-19T14:36:07.113Z,5.10
2023-02-19T14:38:40.193Z,5.10
2023-02-19T14:41:13.951Z,5.10
2023-02-19T14:43:43.446Z,5.10
2023-02-19T14:46:19.700Z,5.10
2023-02-19T14:48:52.727Z,5.00
2023-02-19T14:51:30.712Z,5.00
2023-02-19T14:54:00.600Z,5.10
2023-02-19T14:56:34.465Z,5.00
2023-02-19T14:59:32.879Z,5.00
2023-02-19T15:02:03.366Z,5.00
2023-02-19T15:04:36.300Z,5.00
2023-02-19T15:07:09.155Z,5.00
2023-02-19T15:09:42.131Z,5.00
2023-02-19T15:12:18.285Z,5.00
2023-02-19T15:15:04.709Z,5.00
2023-02-19T15:17:35.373Z,5.00
2023-02-19T15:20:10.700Z,5.00
2023-02-19T15:22:42.062Z,5.00
2023-02-19T15:25:18.901Z,5.00
2023-02-19T15:27:49.010Z,5.00
2023-02-19T15:30:22.708Z,4.90
2023-02-19T15:32:57.353Z,4.90
2023-02-19T15:35:27.440Z,4.90
2023-02-19T15:38:22.049Z,4.90
2023-02-19T15:40:51.548Z,5.00
2023-02-19T15:43:26.181Z,4.90
2023-02-19T15:45:59.112Z,4.90
2023-02-19T15:48:33.557Z,5.00
2023-02-19T15:51:09.652Z,5.00
2023-02-19T15:53:43.068Z,5.00
2023-02-19T15:56:18.994Z,5.00
2023-02-19T15:58:52.810Z,5.00
2023-02-19T16:01:25.875Z,5.00
2023-02-19T16:03:55.552Z,4.90
2023-02-19T16:06:26.012Z,5.00
2023-02-19T16:09:02.881Z,4.90
2023-02-19T16:11:37.437Z,5.00
2023-02-19T16:14:24.946Z,5.00
2023-02-19T16:16:56.314Z,5.00
2023-02-19T16:19:29.519Z,5.00
2023-02-19T16:21:59.008Z,5.00
2023-02-19T16:24:31.170Z,5.00
2023-02-19T16:27:00.383Z,5.00
2023-02-19T16:29:32.512Z,5.00
2023-02-19T16:32:05.871Z,5.00
2023-02-19T16:34:40.976Z,5.00
2023-02-19T16:37:35.714Z,5.00
2023-02-19T16:40:52.568Z,5.00
2023-02-19T16:43:31.363Z,5.00
2023-02-19T16:46:05.141Z,5.00
2023-02-19T16:48:35.963Z,5.00
2023-02-19T16:51:07.314Z,5.00
2023-02-19T16:53:36.402Z,5.00
2023-02-19T16:56:04.749Z,5.00
2023-02-19T16:58:33.185Z,5.00
2023-02-19T17:01:03.057Z,5.00
2023-02-19T17:03:33.673Z,5.00
2023-02-19T17:06:02.057Z,5.00
2023-02-19T17:08:37.169Z,5.00
2023-02-19T17:11:07.332Z,5.00
2023-02-19T17:13:35.935Z,5.00
2023-02-19T17:16:05.943Z,5.00
2023-02-19T17:18:34.337Z,5.00
2023-02-19T17:21:14.044Z,5.00
2023-02-19T17:23:42.631Z,5.10
2023-02-19T17:26:14.993Z,5.00
2023-02-19T17:28:43.456Z,5.10
2023-02-19T17:31:14.600Z,5.00
2023-02-19T17:33:43.808Z,5.10
2023-02-19T17:36:19.409Z,5.10
2023-02-19T17:38:47.984Z,5.10
2023-02-19T17:41:16.119Z,5.10
2023-02-19T17:43:44.297Z,5.10
2023-02-19T17:46:17.157Z,5.00
2023-02-19T17:48:45.454Z,5.10
2023-02-19T17:51:13.899Z,5.00
2023-02-19T17:53:42.569Z,5.00
2023-02-19T17:56:13.170Z,5.10
2023-02-19T17:58:41.521Z,5.00
2023-02-19T18:01:10.349Z,5.00
2023-02-19T18:03:40.444Z,4.90
2023-02-19T18:06:09.057Z,5.00
2023-02-19T18:08:40.269Z,5.00
2023-02-19T18:11:09.254Z,5.00
2023-02-19T18:13:37.718Z,5.00
2023-02-19T18:16:07.050Z,5.00
2023-02-19T18:18:35.439Z,5.00
2023-02-19T18:21:05.588Z,5.00
2023-02-19T18:23:33.924Z,5.00
2023-02-19T18:26:02.264Z,5.00
2023-02-19T18:28:32.404Z,5.00
2023-02-19T18:31:04.230Z,5.00
2023-02-19T18:33:32.851Z,5.00
2023-02-19T18:36:01.357Z,5.00
2023-02-19T18:38:31.677Z,5.00
2023-02-19T18:40:59.912Z,5.00
2023-02-19T18:43:28.365Z,5.00
2023-02-19T18:45:58.770Z,5.00
2023-02-19T18:48:30.653Z,5.00
2023-02-19T18:51:02.150Z,4.90
2023-02-19T18:53:32.361Z,5.00
2023-02-19T19:32:23.344Z,5.10
2023-02-19T19:45:52.856Z,5.00
2023-02-19T19:48:47.470Z,5.00
2023-02-19T19:51:18.237Z,5.10
2023-02-19T19:54:05.400Z,5.10
2023-02-19T19:59:53.752Z,5.10
2023-02-19T20:02:23.777Z,5.00
2023-02-19T20:04:51.890Z,5.00
2023-02-19T20:07:19.838Z,5.00
2023-02-19T20:09:49.070Z,5.00
2023-02-19T20:12:17.412Z,5.00
2023-02-19T20:14:53.979Z,5.00
2023-02-19T20:17:27.196Z,4.90
2023-02-19T20:19:55.469Z,4.90
2023-02-19T20:22:23.456Z,4.90
2023-02-19T20:24:55.649Z,4.90
2023-02-19T20:27:24.260Z,4.90
2023-02-19T20:29:52.227Z,4.90
2023-02-19T20:32:20.235Z,4.90
2023-02-19T20:34:49.966Z,5.00
2023-02-19T20:37:19.696Z,4.90
2023-02-19T20:39:47.647Z,4.90
2023-02-19T20:42:16.980Z,5.00
2023-02-19T20:44:45.781Z,5.00
2023-02-19T20:47:13.856Z,5.00
2023-02-19T20:49:45.972Z,5.00
2023-02-19T20:52:17.699Z,5.00
2023-02-19T20:55:00.838Z,5.00
2023-02-19T20:57:28.800Z,5.00
2023-02-19T20:59:56.764Z,5.00
2023-02-19T21:02:29.226Z,5.00
2023-02-19T21:06:56.344Z,5.00
2023-02-19T21:13:31.699Z,4.90
